KTIF

Details ICAO KTIF
Name Thomas County
Region United States
Timezone America/Chicago (UTC-6.0)
Plans Departing 0
Arriving 0
Stats Elevation 2,926 ft / 892 m (AMSL)
Location 41.962711° -100.570313°
Runways 1
Magnetic Variation 5.756° E
Sunrise 2017-12-16 14:05:27 UTC / 2017-12-16 08:05:27 Local
Sunset 2017-12-16 23:13:24 UTC / 2017-12-16 17:13:24 Local
Advertisement - Login to hide

Runways

ID Width Length Bearing (true) Bearing (mag) Surface Threshold Offset Overrun Length
11 59 ft / 18 m 4,407 ft / 1,343 m 118.50° 112.74° Asphalt 0 ft / 0 m 0 ft / 0 m
29 59 ft / 18 m 4,407 ft / 1,343 m 298.50° 292.74° Asphalt 0 ft / 0 m 0 ft / 0 m

Map

Weather


0- 5 10 15 20 25 30 35+ Temperature / ° C

Clouds and Precipitation
Forecast for 2017-12-16 18:00 UTC. Updated 2 hours ago

Ground ~20,000 ft ~40,000 ft Winds

METAR

KTIF 161655Z AUTO 36012G19KT 10SM CLR 05/M02 A2989 RMK AO2 T00541020

TAF

Not found

Frequencies

Recorded 120.82 MHz AWOS 3
Unicom 122.90 MHz CTAF
Warning: Do not use this data for real-world aviation or navigation. No guarantee of current accuracy is given.